Fuzhou Changle International Airport


Codes: ZSFZ/FOC
Name: Fuzhou Changle International Airport
City: Fuzhou
Country: China
Elevation: 46 ft.
Website:
Wikipedia:

Photos at Fuzhou Changle International Airport


   Photos courtesy of SpottingLog. You can add your own sightings and photos by signing up for a free trial today.



No photos found.

Weather at Fuzhou Changle International Airport


Time (UTC)DescriptionTempratureWindCloud coverageVisibilityPressureHumidity
26-Jun-2024 00:00Broken Clouds27°C4 mph, SW81%10000m1012hPa90%
26-Jun-2024 03:00Overcast Clouds28°C7 mph, S92%10000m1012hPa82%
26-Jun-2024 06:00Overcast Clouds29°C9 mph, S100%10000m1011hPa77%
26-Jun-2024 09:00Light Rain28°C9 mph, S95%10000m1010hPa86%
26-Jun-2024 12:00Light Rain26°C4 mph, S97%10000m1012hPa92%
26-Jun-2024 15:00Scattered Clouds26°C4 mph, NW48%10000m1013hPa94%
26-Jun-2024 18:00Broken Clouds25°C4 mph, NW65%10000m1012hPa95%
26-Jun-2024 21:00Broken Clouds25°C2 mph, N83%10000m1012hPa95%
27-Jun-2024 00:00Broken Clouds27°C2 mph, W82%10000m1012hPa89%
27-Jun-2024 03:00Overcast Clouds29°C4 mph, S97%10000m1012hPa76%
27-Jun-2024 06:00Broken Clouds30°C13 mph, S79%10000m1009hPa73%
27-Jun-2024 09:00Overcast Clouds29°C13 mph, S97%10000m1009hPa80%
27-Jun-2024 12:00Overcast Clouds27°C11 mph, S98%10000m1010hPa85%
27-Jun-2024 15:00Overcast Clouds26°C9 mph, SW100%10000m1011hPa88%
27-Jun-2024 18:00Overcast Clouds26°C7 mph, SW99%10000m1010hPa90%
27-Jun-2024 21:00Overcast Clouds25°C4 mph, SW97%10000m1010hPa92%
28-Jun-2024 00:00Overcast Clouds27°C4 mph, W99%10000m1011hPa85%
28-Jun-2024 03:00Light Rain29°C4 mph, S99%10000m1011hPa77%
28-Jun-2024 06:00Moderate Rain29°C7 mph, S100%10000m1009hPa78%
28-Jun-2024 09:00Light Rain27°C4 mph, SW100%10000m1009hPa86%
28-Jun-2024 12:00Light Rain26°C0 mph, W94%10000m1010hPa92%
28-Jun-2024 15:00Light Rain25°C2 mph, W100%10000m1011hPa93%
28-Jun-2024 18:00Overcast Clouds26°C2 mph, SW100%10000m1009hPa94%
28-Jun-2024 21:00Overcast Clouds26°C4 mph, SW96%10000m1008hPa94%
29-Jun-2024 00:00Overcast Clouds27°C7 mph, SW88%10000m1009hPa87%
29-Jun-2024 03:00Overcast Clouds29°C16 mph, S100%10000m1008hPa76%
29-Jun-2024 06:00Overcast Clouds30°C18 mph, S94%10000m1006hPa72%
29-Jun-2024 09:00Overcast Clouds28°C16 mph, S100%10000m1005hPa80%
29-Jun-2024 12:00Overcast Clouds26°C11 mph, S96%10000m1007hPa90%
29-Jun-2024 15:00Overcast Clouds26°C13 mph, S99%10000m1007hPa92%
29-Jun-2024 18:00Overcast Clouds26°C13 mph, SW99%10000m1005hPa93%
29-Jun-2024 21:00Overcast Clouds26°C11 mph, SW100%10000m1005hPa91%
30-Jun-2024 00:00Overcast Clouds28°C11 mph, SW100%10000m1006hPa81%
30-Jun-2024 03:00Overcast Clouds29°C16 mph, S100%10000m1006hPa73%
30-Jun-2024 06:00Overcast Clouds30°C16 mph, S100%10000m1004hPa75%
30-Jun-2024 09:00Broken Clouds29°C11 mph, S82%10000m1004hPa80%
30-Jun-2024 12:00Overcast Clouds27°C9 mph, S91%10000m1005hPa91%
30-Jun-2024 15:00Light Rain27°C7 mph, SE100%10000m1004hPa94%
30-Jun-2024 18:00Light Rain26°C9 mph, SW100%10000m1004hPa95%
30-Jun-2024 21:00Overcast Clouds26°C11 mph, SW100%10000m1004hPa95%